createdAt,value
2023-03-15T00:02:29.484Z,97121.25
2023-03-15T00:05:04.730Z,97111.64
2023-03-15T00:07:52.574Z,97119.55
2023-03-15T00:10:27.664Z,97127.45
2023-03-15T00:13:15.520Z,97130.37
2023-03-15T00:15:55.661Z,97139.35
2023-03-15T00:18:43.527Z,97137.83
2023-03-15T00:21:25.507Z,97147.25
2023-03-15T00:24:13.518Z,97152.17
2023-03-15T00:26:55.525Z,97161.66
2023-03-15T00:29:50.533Z,97174.20
2023-03-15T00:32:38.548Z,97185.73
2023-03-15T00:35:20.526Z,97201.87
2023-03-15T00:38:08.542Z,97201.35
2023-03-15T00:40:44.637Z,97216.29
2023-03-15T00:43:32.540Z,97221.37
2023-03-15T00:46:14.547Z,97235.42
2023-03-15T00:49:09.555Z,97242.30
2023-03-15T00:52:04.516Z,97259.55
2023-03-15T00:55:05.530Z,97263.63
2023-03-15T00:57:47.299Z,97271.89
2023-03-15T01:00:37.509Z,97282.42
2023-03-15T01:03:18.541Z,97297.08
2023-03-15T01:05:59.702Z,97310.78
2023-03-15T01:08:41.603Z,97311.11
2023-03-15T01:11:25.654Z,97315.77
2023-03-15T01:14:07.521Z,97328.31
2023-03-15T01:16:48.671Z,97343.70
2023-03-15T01:19:29.512Z,97350.50
2023-03-15T01:22:17.624Z,97375.05
2023-03-15T01:25:12.627Z,97394.02
2023-03-15T01:28:00.564Z,97405.19
2023-03-15T01:30:35.701Z,97410.41
2023-03-15T01:33:23.509Z,97421.23
2023-03-15T01:36:21.515Z,97429.25
2023-03-15T01:39:16.511Z,97436.52
2023-03-15T01:42:11.511Z,97448.85
2023-03-15T01:45:06.617Z,97466.34
2023-03-15T01:47:49.534Z,97466.83
2023-03-15T01:50:37.573Z,97466.34
2023-03-15T01:53:19.504Z,97476.16
2023-03-15T01:56:14.520Z,97496.89
2023-03-15T01:59:04.512Z,97496.74
2023-03-15T02:01:46.531Z,97502.50
2023-03-15T02:04:49.507Z,97514.94
2023-03-15T02:07:41.517Z,97519.99
2023-03-15T02:10:21.695Z,97528.02
2023-03-15T02:13:09.526Z,97537.73
2023-03-15T02:15:46.997Z,97544.30
2023-03-15T02:18:34.505Z,97550.20
2023-03-15T02:21:24.645Z,97560.87
2023-03-15T02:24:33.513Z,97555.20
2023-03-15T02:27:21.561Z,97546.23
2023-03-15T02:30:02.616Z,97551.90
2023-03-15T02:32:43.732Z,97567.08
2023-03-15T02:35:34.619Z,97576.04
2023-03-15T02:38:22.660Z,97574.51
2023-03-15T02:40:58.593Z,97567.82
2023-03-15T02:43:46.557Z,97572.20
2023-03-15T02:46:21.116Z,97571.14
2023-03-15T02:49:09.630Z,97586.58
2023-03-15T02:51:45.148Z,97589.65
2023-03-15T02:54:33.516Z,97597.34
2023-03-15T02:57:30.490Z,97597.93
2023-03-15T03:00:20.544Z,97592.34
2023-03-15T03:02:55.629Z,97591.37
2023-03-15T03:05:43.522Z,97594.25
2023-03-15T03:08:18.637Z,97615.04
2023-03-15T03:11:06.498Z,97601.40
2023-03-15T03:13:40.831Z,97605.19
2023-03-15T03:16:29.523Z,97619.85
2023-03-15T03:19:04.734Z,97618.90
2023-03-15T03:21:52.494Z,97633.95
2023-03-15T03:24:34.499Z,97628.44
2023-03-15T03:27:29.506Z,97647.61
2023-03-15T03:30:20.482Z,97663.66
2023-03-15T03:33:01.581Z,97665.80
2023-03-15T03:35:56.537Z,97662.85
2023-03-15T03:38:44.495Z,97656.41
2023-03-15T03:41:28.491Z,97653.34
2023-03-15T03:44:23.523Z,97660.52
2023-03-15T03:47:11.501Z,97667.84
2023-03-15T03:49:52.695Z,97674.15
2023-03-15T03:52:34.491Z,97684.41
2023-03-15T03:55:32.559Z,97682.41
2023-03-15T03:58:27.560Z,97688.11
2023-03-15T04:01:15.497Z,97687.95
2023-03-15T04:03:51.556Z,97693.34
2023-03-15T04:06:39.492Z,97698.16
2023-03-15T04:09:21.488Z,97706.57
2023-03-15T04:12:09.623Z,97711.06
2023-03-15T04:14:50.476Z,97719.73
2023-03-15T04:17:31.501Z,97721.33
2023-03-15T04:20:13.179Z,97726.27
2023-03-15T04:23:01.472Z,97733.23
2023-03-15T04:25:36.624Z,97733.88
2023-03-15T04:28:25.502Z,97740.70
2023-03-15T04:31:00.684Z,97742.96
2023-03-15T04:33:48.491Z,97750.07
2023-03-15T04:36:23.948Z,97755.48
2023-03-15T04:39:12.522Z,97762.29
2023-03-15T04:41:47.605Z,97758.80
2023-03-15T04:44:35.490Z,97770.77
2023-03-15T04:47:10.616Z,97771.05
2023-03-15T04:49:58.505Z,97766.38
2023-03-15T04:52:40.496Z,97769.94
2023-03-15T04:55:35.479Z,97772.70
2023-03-15T04:58:24.500Z,97778.77
2023-03-15T05:01:07.498Z,97784.29
2023-03-15T05:04:02.487Z,97784.37
2023-03-15T05:06:50.475Z,97780.81
2023-03-15T05:09:24.636Z,97792.23
2023-03-15T05:12:13.490Z,97796.73
2023-03-15T05:14:48.613Z,97803.91
2023-03-15T05:17:36.479Z,97806.45
2023-03-15T05:20:20.932Z,97811.02
2023-03-15T05:23:02.495Z,97825.19
2023-03-15T05:25:43.741Z,97823.46
2023-03-15T05:28:25.504Z,97823.63
2023-03-15T05:31:06.624Z,97829.57
2023-03-15T05:33:53.491Z,97828.89
2023-03-15T05:36:34.770Z,97833.86
2023-03-15T05:39:16.583Z,97832.19
2023-03-15T05:41:57.619Z,97836.10
2023-03-15T05:44:38.508Z,97843.16
2023-03-15T05:47:19.683Z,97852.39
2023-03-15T05:50:00.493Z,97864.88
2023-03-15T05:52:48.474Z,97861.38
2023-03-15T05:55:36.491Z,97876.08
2023-03-15T05:58:24.469Z,97882.53
2023-03-15T06:01:01.611Z,97884.29
2023-03-15T06:03:49.644Z,97886.21
2023-03-15T06:06:33.583Z,97888.49
2023-03-15T06:09:14.873Z,97895.35
2023-03-15T06:12:02.465Z,97899.64
2023-03-15T06:14:36.927Z,97900.92
2023-03-15T06:17:24.468Z,97906.85
2023-03-15T06:19:58.914Z,97907.02
2023-03-15T06:22:46.473Z,97908.97
2023-03-15T06:25:20.883Z,97916.73
2023-03-15T06:28:08.472Z,97914.55
2023-03-15T06:30:49.497Z,97920.98
2023-03-15T06:33:31.709Z,97929.05
2023-03-15T06:36:13.469Z,97935.08
2023-03-15T06:38:54.765Z,97941.55
2023-03-15T06:41:36.481Z,97950.95
2023-03-15T06:44:17.601Z,97957.23
2023-03-15T06:46:58.473Z,97968.96
2023-03-15T06:49:46.524Z,97981.50
2023-03-15T06:52:27.447Z,97975.60
2023-03-15T06:55:25.465Z,97978.24
2023-03-15T06:58:13.457Z,97981.01
2023-03-15T07:00:49.744Z,97981.52
2023-03-15T07:03:37.461Z,97989.20
2023-03-15T07:06:12.611Z,97983.20
2023-03-15T07:09:00.471Z,97972.65
2023-03-15T07:11:35.577Z,97975.07
2023-03-15T07:14:23.466Z,97987.02
2023-03-15T07:16:57.592Z,97988.66
2023-03-15T07:19:55.912Z,97991.12
2023-03-15T07:22:38.486Z,97989.61
2023-03-15T07:25:39.676Z,97996.53
2023-03-15T07:28:33.468Z,98002.06
2023-03-15T07:31:10.836Z,98007.63
2023-03-15T07:33:58.466Z,98008.66
2023-03-15T07:36:33.618Z,98008.42
2023-03-15T07:39:21.485Z,98018.57
2023-03-15T07:41:56.601Z,98020.05
2023-03-15T07:44:44.526Z,98025.11
2023-03-15T07:47:26.521Z,98027.29
2023-03-15T07:50:22.451Z,98030.75
2023-03-15T07:53:11.457Z,98021.85
2023-03-15T07:55:46.580Z,98023.46
2023-03-15T07:58:34.473Z,98023.23
2023-03-15T08:01:09.608Z,98019.61
2023-03-15T08:03:57.542Z,98019.34
2023-03-15T08:06:39.043Z,98024.66
2023-03-15T08:09:20.447Z,98031.49
2023-03-15T08:12:01.741Z,98034.46
2023-03-15T08:14:44.472Z,98040.85
2023-03-15T08:18:05.274Z,98044.08
2023-03-15T08:20:47.454Z,98046.52
2023-03-15T08:23:36.480Z,98047.48
2023-03-15T08:26:24.525Z,98048.63
2023-03-15T08:29:06.461Z,98057.50
2023-03-15T08:32:01.547Z,98056.98
2023-03-15T08:34:49.462Z,98054.37
2023-03-15T08:37:24.607Z,98053.59
2023-03-15T08:40:17.460Z,98053.01
2023-03-15T08:42:51.625Z,98054.19
2023-03-15T08:45:56.811Z,98059.93
2023-03-15T08:48:40.537Z,98069.96
2023-03-15T08:51:36.457Z,98070.26
2023-03-15T08:54:32.485Z,98070.33
2023-03-15T08:57:20.441Z,98076.68
2023-03-15T08:59:54.629Z,98082.62
2023-03-15T09:02:43.525Z,98086.37
2023-03-15T09:05:18.694Z,98087.40
2023-03-15T09:08:07.433Z,98095.23
2023-03-15T09:10:48.450Z,98097.30
2023-03-15T09:13:43.455Z,98095.52
2023-03-15T09:16:38.464Z,98095.60
2023-03-15T09:19:26.429Z,98101.27
2023-03-15T09:22:16.420Z,98102.79
2023-03-15T09:25:11.455Z,98108.96
2023-03-15T09:27:53.445Z,98108.36
2023-03-15T09:30:42.506Z,98112.53
2023-03-15T09:33:17.594Z,98117.44
2023-03-15T09:36:06.630Z,98127.48
2023-03-15T09:38:48.453Z,98122.95
2023-03-15T09:42:00.435Z,98124.71
2023-03-15T09:44:52.445Z,98120.66
2023-03-15T09:48:08.426Z,98115.39
2023-03-15T09:51:07.475Z,98124.84
2023-03-15T09:54:12.445Z,98129.52
2023-03-15T09:57:04.457Z,98142.95
2023-03-15T09:59:47.575Z,98136.04
2023-03-15T10:02:37.444Z,98137.08
2023-03-15T10:05:27.439Z,98138.23
2023-03-15T10:08:22.442Z,98141.52
2023-03-15T10:11:22.514Z,98141.56
2023-03-15T10:14:29.454Z,98144.52
2023-03-15T10:17:11.456Z,98149.74
2023-03-15T10:20:08.442Z,98154.95
2023-03-15T10:23:10.537Z,98150.95
2023-03-15T10:25:46.492Z,98153.31
2023-03-15T10:28:37.051Z,98152.30
2023-03-15T10:31:22.294Z,98150.55
2023-03-15T10:34:18.437Z,98155.65
2023-03-15T10:37:13.440Z,98163.66
2023-03-15T10:40:06.422Z,98171.80
2023-03-15T10:42:41.574Z,98172.95
2023-03-15T10:45:31.427Z,98176.52
2023-03-15T10:48:05.579Z,98179.48
2023-03-15T10:50:53.446Z,98182.31
2023-03-15T10:53:28.666Z,98180.50
2023-03-15T10:56:32.473Z,98182.39
2023-03-15T10:59:12.854Z,98180.59
2023-03-15T11:02:34.570Z,98178.55
2023-03-15T11:05:29.661Z,98179.46
2023-03-15T11:08:22.435Z,98180.91
2023-03-15T11:11:12.419Z,98175.42
2023-03-15T11:14:07.440Z,98173.59
2023-03-15T11:16:42.595Z,98173.13
2023-03-15T11:19:34.418Z,98170.94
2023-03-15T11:22:09.790Z,98167.72
2023-03-15T11:24:59.477Z,98172.78
2023-03-15T11:27:35.584Z,98169.62
2023-03-15T11:30:24.424Z,98166.64
2023-03-15T11:32:59.633Z,98171.23
2023-03-15T11:35:54.415Z,98181.73
2023-03-15T11:38:44.201Z,98174.83
2023-03-15T11:41:25.440Z,98177.16
2023-03-15T11:44:32.551Z,98180.62
2023-03-15T11:47:36.019Z,98180.35
2023-03-15T11:50:23.606Z,98177.08
2023-03-15T11:53:09.438Z,98169.16
2023-03-15T11:56:08.495Z,98169.64
2023-03-15T11:59:22.446Z,98177.63
2023-03-15T12:02:22.463Z,98187.88
2023-03-15T12:05:03.898Z,98192.05
2023-03-15T12:08:06.528Z,98197.69
2023-03-15T12:10:57.535Z,98194.96
2023-03-15T12:13:45.470Z,98194.94
2023-03-15T12:16:27.559Z,98196.92
2023-03-15T12:19:23.449Z,98201.00
2023-03-15T12:22:10.436Z,98208.00
2023-03-15T12:25:05.434Z,98204.36
2023-03-15T12:27:59.421Z,98204.68
2023-03-15T12:30:52.458Z,98204.88
2023-03-15T12:33:58.552Z,98205.77
2023-03-15T12:36:48.423Z,98206.83
2023-03-15T12:39:22.586Z,98205.23
2023-03-15T12:42:11.412Z,98207.10
2023-03-15T12:44:57.438Z,98207.25
2023-03-15T12:47:57.432Z,98207.29
2023-03-15T12:50:59.405Z,98206.39
2023-03-15T12:53:50.431Z,98206.80
2023-03-15T12:56:32.409Z,98205.27
2023-03-15T12:59:30.513Z,98205.45
2023-03-15T13:02:14.424Z,98205.75
2023-03-15T13:05:17.423Z,98199.79
2023-03-15T13:08:02.554Z,98204.88
2023-03-15T13:11:12.430Z,98206.13
2023-03-15T13:14:15.424Z,98210.57
2023-03-15T13:17:14.440Z,98215.39
2023-03-15T13:20:35.477Z,98217.17
2023-03-15T13:23:35.662Z,98216.09
2023-03-15T13:26:23.422Z,98219.61
2023-03-15T13:29:08.682Z,98220.05
2023-03-15T13:32:28.749Z,98222.45
2023-03-15T13:35:03.996Z,98221.77
2023-03-15T13:37:51.451Z,98223.08
2023-03-15T13:40:33.435Z,98216.50
2023-03-15T13:43:28.438Z,98221.49
2023-03-15T13:46:16.437Z,98226.33
2023-03-15T13:48:53.576Z,98235.05
2023-03-15T13:51:44.426Z,98236.16
2023-03-15T13:54:26.442Z,98242.41
2023-03-15T13:57:25.427Z,98242.73
2023-03-15T14:00:25.423Z,98248.57
2023-03-15T14:03:02.632Z,98252.98
2023-03-15T14:05:55.561Z,98258.60
2023-03-15T14:08:47.471Z,98263.58
2023-03-15T14:11:53.007Z,98262.65
2023-03-15T14:14:51.449Z,98268.98
2023-03-15T14:17:40.416Z,98268.57
2023-03-15T14:20:21.937Z,98271.19
2023-03-15T14:23:10.438Z,98274.04
2023-03-15T14:25:45.596Z,98276.91
2023-03-15T14:28:33.467Z,98277.08
2023-03-15T14:31:08.734Z,98282.10
2023-03-15T14:34:02.432Z,98284.80
2023-03-15T14:36:46.468Z,98285.16
2023-03-15T14:39:48.424Z,98281.08
2023-03-15T14:42:30.655Z,98280.30
2023-03-15T14:45:26.680Z,98280.88
2023-03-15T14:48:25.440Z,98279.35
2023-03-15T14:51:01.613Z,98285.71
2023-03-15T14:53:50.407Z,98286.00
2023-03-15T14:56:25.611Z,98279.17
2023-03-15T14:59:19.428Z,98278.54
2023-03-15T15:02:01.877Z,98276.41
2023-03-15T15:04:50.418Z,98285.72
2023-03-15T15:07:32.574Z,98289.86
2023-03-15T15:10:13.921Z,98294.38
2023-03-15T15:13:06.828Z,98295.85
2023-03-15T15:15:54.704Z,98304.84
2023-03-15T15:18:45.404Z,98306.51
2023-03-15T15:21:33.798Z,98306.55
2023-03-15T15:24:31.411Z,98305.59
2023-03-15T15:27:05.844Z,98310.45
2023-03-15T15:29:53.523Z,98314.41
2023-03-15T15:32:28.907Z,98318.83
2023-03-15T15:35:16.492Z,98321.25
2023-03-15T15:37:52.205Z,98317.54
2023-03-15T15:40:42.492Z,98316.96
2023-03-15T15:43:17.147Z,98319.42
2023-03-15T15:46:05.440Z,98319.90
2023-03-15T15:48:42.041Z,98326.10
2023-03-15T15:51:33.418Z,98326.15
2023-03-15T15:54:17.180Z,98320.16
2023-03-15T15:57:09.405Z,98328.23
2023-03-15T15:59:43.806Z,98334.77
2023-03-15T16:02:31.508Z,98331.96
2023-03-15T16:05:08.374Z,98330.48
2023-03-15T16:07:58.276Z,98333.89
2023-03-15T16:10:37.557Z,98337.84
2023-03-15T16:13:26.437Z,98336.96
2023-03-15T16:16:08.525Z,98336.72
2023-03-15T16:18:51.191Z,98343.00
2023-03-15T16:21:40.415Z,98342.96
2023-03-15T16:24:25.532Z,98343.95
2023-03-15T16:27:08.437Z,98343.91
2023-03-15T16:29:55.207Z,98345.31
2023-03-15T16:32:44.481Z,98350.64
2023-03-15T16:35:40.765Z,98352.30
2023-03-15T16:38:18.749Z,98358.37
2023-03-15T16:41:07.709Z,98361.61
2023-03-15T16:43:43.132Z,98366.58
2023-03-15T16:46:32.052Z,98367.23
2023-03-15T16:49:08.479Z,98371.98
2023-03-15T16:52:00.615Z,98379.09
2023-03-15T16:54:51.393Z,98390.76
2023-03-15T16:57:39.408Z,98390.83
2023-03-15T17:00:21.531Z,98393.93
2023-03-15T17:03:11.400Z,98393.61
2023-03-15T17:05:54.464Z,98399.89
2023-03-15T17:08:49.465Z,98402.27
2023-03-15T17:11:38.707Z,98403.31
2023-03-15T17:14:14.596Z,98406.24
2023-03-15T17:17:02.423Z,98410.73
2023-03-15T17:19:44.420Z,98414.12
2023-03-15T17:22:39.400Z,98421.19
2023-03-15T17:25:27.418Z,98422.73
2023-03-15T17:28:02.520Z,98424.61
2023-03-15T17:30:55.217Z,98432.43
2023-03-15T17:33:41.541Z,98429.60
2023-03-15T17:36:32.478Z,98431.43
2023-03-15T17:39:07.559Z,98435.52
2023-03-15T17:41:55.402Z,98437.58
2023-03-15T17:44:38.438Z,98438.57
2023-03-15T17:47:26.850Z,98440.15
2023-03-15T17:50:07.553Z,98439.12
2023-03-15T17:52:51.501Z,98437.08
2023-03-15T17:55:46.404Z,98439.80
2023-03-15T17:58:34.386Z,98445.08
2023-03-15T18:01:10.115Z,98452.42
2023-03-15T18:03:59.504Z,98453.60
2023-03-15T18:06:34.519Z,98455.83
2023-03-15T18:09:22.370Z,98455.02
2023-03-15T18:12:03.612Z,98455.98
2023-03-15T18:14:45.396Z,98454.27
2023-03-15T18:17:26.754Z,98458.14
2023-03-15T18:20:08.384Z,98453.84
2023-03-15T18:22:49.559Z,98450.19
2023-03-15T18:25:35.401Z,98445.43
2023-03-15T18:28:23.700Z,98447.34
2023-03-15T18:30:58.906Z,98447.11
2023-03-15T18:33:46.465Z,98448.63
2023-03-15T18:36:24.708Z,98451.05
2023-03-15T18:39:13.474Z,98454.76
2023-03-15T18:41:47.802Z,98457.57
2023-03-15T18:44:35.540Z,98457.33
2023-03-15T18:47:19.850Z,98456.04
2023-03-15T18:50:09.927Z,98454.10
2023-03-15T18:52:52.398Z,98456.83
2023-03-15T18:55:42.725Z,98459.29
2023-03-15T18:58:38.412Z,98459.84
2023-03-15T19:01:29.610Z,98463.38
2023-03-15T19:04:04.654Z,98462.23
2023-03-15T19:06:52.751Z,98467.90
2023-03-15T19:09:29.502Z,98470.95
2023-03-15T19:12:18.382Z,98473.04
2023-03-15T19:14:53.519Z,98478.67
2023-03-15T19:17:41.381Z,98483.27
2023-03-15T19:20:24.817Z,98488.79
2023-03-15T19:23:06.523Z,98491.34
2023-03-15T19:25:47.542Z,98490.98
2023-03-15T19:28:29.368Z,98488.27
2023-03-15T19:31:18.423Z,98492.79
2023-03-15T19:33:53.225Z,98490.45
2023-03-15T19:36:43.448Z,98494.92
2023-03-15T19:39:19.300Z,98496.03
2023-03-15T19:42:08.365Z,98496.69
2023-03-15T19:44:43.856Z,98494.80
2023-03-15T19:47:31.372Z,98496.48
2023-03-15T19:50:13.660Z,98500.79
2023-03-15T19:52:55.204Z,98502.17
2023-03-15T19:55:37.359Z,98503.04
2023-03-15T19:58:25.361Z,98508.25
2023-03-15T20:01:01.757Z,98510.69
2023-03-15T20:03:42.384Z,98516.48
2023-03-15T20:06:31.373Z,98518.86
2023-03-15T20:09:07.898Z,98520.88
2023-03-15T20:11:55.360Z,98526.36
2023-03-15T20:14:29.942Z,98527.80
2023-03-15T20:17:19.376Z,98527.31
2023-03-15T20:19:55.244Z,98531.07
2023-03-15T20:22:47.677Z,98532.30
2023-03-15T20:25:22.771Z,98534.73
2023-03-15T20:28:11.372Z,98534.66
2023-03-15T20:30:46.762Z,98538.42
2023-03-15T20:33:34.564Z,98541.20
2023-03-15T20:36:16.461Z,98539.45
2023-03-15T20:38:57.488Z,98544.36
2023-03-15T20:41:40.557Z,98539.17
2023-03-15T20:44:22.506Z,98542.29
2023-03-15T20:47:05.408Z,98538.52
2023-03-15T20:49:53.393Z,98537.45
2023-03-15T20:52:28.134Z,98537.23
2023-03-15T20:55:16.376Z,98541.55
2023-03-15T20:58:12.353Z,98546.02
2023-03-15T21:01:09.446Z,98540.25
2023-03-15T21:03:44.575Z,98545.73
2023-03-15T21:06:32.361Z,98545.80
2023-03-15T21:09:07.650Z,98549.17
2023-03-15T21:11:59.175Z,98551.92
2023-03-15T21:14:36.621Z,98556.27
2023-03-15T21:17:24.348Z,98558.41
2023-03-15T21:19:58.527Z,98559.45
2023-03-15T21:22:46.368Z,98566.34
2023-03-15T21:25:21.548Z,98568.52
2023-03-15T21:28:11.652Z,98571.41
2023-03-15T21:30:47.579Z,98570.65
2023-03-15T21:33:36.336Z,98572.30
2023-03-15T21:36:11.464Z,98575.00
2023-03-15T21:38:59.340Z,98573.58
2023-03-15T21:41:34.547Z,98573.29
2023-03-15T21:44:23.352Z,98573.12
2023-03-15T21:47:05.335Z,98574.45
2023-03-15T21:50:00.333Z,98576.88
2023-03-15T21:52:55.323Z,98581.55
2023-03-15T21:55:53.325Z,98584.19
2023-03-15T21:58:48.560Z,98587.04
2023-03-15T22:01:36.449Z,98589.06
2023-03-15T22:04:11.511Z,98597.27
2023-03-15T22:06:59.328Z,98590.48
2023-03-15T22:09:34.541Z,98589.00
2023-03-15T22:12:26.279Z,98590.13
2023-03-15T22:15:10.748Z,98590.83
2023-03-15T22:17:58.455Z,98592.48
2023-03-15T22:20:35.547Z,98597.13
2023-03-15T22:23:27.091Z,98597.65
2023-03-15T22:26:02.451Z,98596.31
2023-03-15T22:28:50.339Z,98600.80
2023-03-15T22:31:32.905Z,98603.37
2023-03-15T22:34:20.337Z,98610.95
2023-03-15T22:36:55.510Z,98614.80
2023-03-15T22:39:44.039Z,98618.65
2023-03-15T22:42:27.079Z,98622.25
2023-03-15T22:45:17.427Z,98625.52
2023-03-15T22:47:53.341Z,98629.34
2023-03-15T22:50:43.124Z,98636.96
2023-03-15T22:53:18.975Z,98640.31
2023-03-15T22:56:15.077Z,98640.67
2023-03-15T22:59:05.334Z,98642.28
2023-03-15T23:01:40.599Z,98642.70
2023-03-15T23:04:30.672Z,98644.83
2023-03-15T23:07:06.543Z,98648.19
2023-03-15T23:09:54.368Z,98650.11
2023-03-15T23:12:35.833Z,98648.23
2023-03-15T23:15:24.358Z,98648.13
2023-03-15T23:18:06.544Z,98650.02
2023-03-15T23:20:49.324Z,98654.20
2023-03-15T23:23:37.547Z,98659.95
2023-03-15T23:26:22.533Z,98661.86
2023-03-15T23:29:10.648Z,98661.06
2023-03-15T23:31:46.254Z,98662.65
2023-03-15T23:34:34.318Z,98664.23
2023-03-15T23:37:10.590Z,98668.29
2023-03-15T23:40:00.325Z,98668.38
2023-03-15T23:42:35.833Z,98674.39
2023-03-15T23:45:24.334Z,98674.88
2023-03-15T23:47:58.934Z,98677.61
2023-03-15T23:50:47.316Z,98673.64
2023-03-15T23:53:21.811Z,98676.30
2023-03-15T23:56:09.329Z,98677.63
2023-03-15T23:58:50.992Z,98680.27
